createdAt,value
2017-10-26T00:00:59.477Z,0.00
2017-10-26T00:01:59.585Z,0.00
2017-10-26T00:02:59.570Z,0.00
2017-10-26T00:03:59.615Z,0.00
2017-10-26T00:04:59.664Z,0.00
2017-10-26T00:05:59.711Z,0.00
2017-10-26T00:06:59.818Z,0.00
2017-10-26T00:07:59.807Z,0.00
2017-10-26T00:08:59.854Z,0.00
2017-10-26T00:09:59.904Z,0.00
2017-10-26T00:10:59.945Z,0.00
2017-10-26T00:12:00.065Z,0.00
2017-10-26T00:13:00.037Z,0.00
2017-10-26T00:14:00.085Z,0.00
2017-10-26T00:15:00.136Z,0.00
2017-10-26T00:16:00.177Z,0.00
2017-10-26T00:17:00.316Z,0.00
2017-10-26T00:18:00.268Z,0.00
2017-10-26T00:19:00.317Z,0.00
2017-10-26T00:20:00.365Z,0.00
2017-10-26T00:21:00.414Z,0.00
2017-10-26T00:22:00.595Z,0.00
2017-10-26T00:23:00.504Z,0.00
2017-10-26T00:24:00.555Z,0.00
2017-10-26T00:25:00.598Z,0.00
2017-10-26T00:26:00.650Z,0.00
2017-10-26T00:27:00.771Z,0.00
2017-10-26T00:28:00.735Z,0.00
2017-10-26T00:29:00.785Z,0.00
2017-10-26T00:30:00.835Z,0.00
2017-10-26T00:31:00.878Z,0.00
2017-10-26T00:32:00.986Z,0.00
2017-10-26T00:33:01.033Z,0.00
2017-10-26T00:34:01.015Z,0.00
2017-10-26T00:35:01.064Z,0.00
2017-10-26T00:36:01.114Z,0.00
2017-10-26T00:37:01.222Z,0.00
2017-10-26T00:38:01.265Z,0.00
2017-10-26T00:39:01.254Z,0.00
2017-10-26T00:40:01.304Z,0.00
2017-10-26T00:41:01.345Z,0.00
2017-10-26T00:42:01.394Z,0.00
2017-10-26T00:43:01.502Z,0.00
2017-10-26T00:44:01.485Z,0.00
2017-10-26T00:45:01.531Z,0.00
2017-10-26T00:46:01.576Z,0.00
2017-10-26T00:47:01.628Z,0.00
2017-10-26T00:48:01.732Z,0.00
2017-10-26T00:49:01.722Z,0.00
2017-10-26T00:50:01.765Z,0.00
2017-10-26T00:51:01.809Z,0.00
2017-10-26T00:52:01.857Z,0.00
2017-10-26T00:53:01.977Z,0.00
2017-10-26T00:54:01.949Z,0.00
2017-10-26T00:55:01.997Z,0.00
2017-10-26T00:56:02.040Z,0.00
2017-10-26T00:57:02.089Z,0.00
2017-10-26T00:58:02.197Z,0.00
2017-10-26T00:59:02.180Z,0.00
2017-10-26T01:00:02.229Z,0.00
2017-10-26T01:01:02.276Z,0.00
2017-10-26T01:02:02.322Z,0.00
2017-10-26T01:03:02.431Z,0.00
2017-10-26T01:04:02.416Z,0.00
2017-10-26T01:05:02.463Z,0.00
2017-10-26T01:06:02.510Z,0.00
2017-10-26T01:07:02.554Z,0.00
2017-10-26T01:08:02.685Z,0.00
2017-10-26T01:09:02.652Z,0.00
2017-10-26T01:10:02.694Z,0.00
2017-10-26T01:11:02.743Z,0.00
2017-10-26T01:12:02.788Z,0.00
2017-10-26T01:13:02.908Z,0.00
2017-10-26T01:14:02.880Z,0.00
2017-10-26T01:15:02.927Z,0.00
2017-10-26T01:16:02.974Z,0.00
2017-10-26T01:17:03.020Z,0.00
2017-10-26T01:18:03.141Z,0.00
2017-10-26T01:19:03.120Z,0.00
2017-10-26T01:20:03.158Z,0.00
2017-10-26T01:21:03.204Z,0.00
2017-10-26T01:22:03.251Z,0.00
2017-10-26T01:23:03.368Z,0.00
2017-10-26T01:24:03.405Z,0.00
2017-10-26T01:25:03.402Z,0.00
2017-10-26T01:26:03.435Z,0.00
2017-10-26T01:27:03.482Z,0.00
2017-10-26T01:28:03.532Z,0.00
2017-10-26T01:29:03.636Z,0.00
2017-10-26T01:30:03.625Z,0.00
2017-10-26T01:31:03.732Z,0.00
2017-10-26T01:32:03.715Z,0.00
2017-10-26T01:33:03.760Z,0.00
2017-10-26T01:34:03.871Z,0.00
2017-10-26T01:35:03.852Z,0.00
2017-10-26T01:36:03.900Z,0.00
2017-10-26T01:37:03.945Z,0.00
2017-10-26T01:38:03.987Z,0.00
2017-10-26T01:39:04.103Z,0.00
2017-10-26T01:40:04.088Z,0.00
2017-10-26T01:41:04.127Z,0.00
2017-10-26T01:42:04.172Z,0.00
2017-10-26T01:43:04.221Z,0.00
2017-10-26T01:44:04.332Z,0.00
2017-10-26T01:45:04.315Z,0.00
2017-10-26T01:46:04.358Z,0.00
2017-10-26T01:47:04.405Z,0.00
2017-10-26T01:48:04.452Z,0.00
2017-10-26T01:49:04.560Z,0.00
2017-10-26T01:50:04.547Z,0.00
2017-10-26T01:51:04.592Z,0.00
2017-10-26T01:52:04.638Z,0.00
2017-10-26T01:53:04.682Z,0.00
2017-10-26T01:54:04.790Z,0.00
2017-10-26T01:55:04.781Z,0.00
2017-10-26T01:56:04.823Z,0.00
2017-10-26T01:57:04.869Z,0.00
2017-10-26T01:58:04.913Z,0.00
2017-10-26T01:59:05.023Z,0.00
2017-10-26T02:00:05.010Z,0.00
2017-10-26T02:01:05.054Z,0.00
2017-10-26T02:02:05.100Z,0.00
2017-10-26T02:03:05.144Z,0.00
2017-10-26T02:04:05.273Z,0.00
2017-10-26T02:05:05.240Z,0.00
2017-10-26T02:06:05.282Z,0.00
2017-10-26T02:07:05.328Z,0.00
2017-10-26T02:08:05.375Z,0.00
2017-10-26T02:09:05.507Z,0.00
2017-10-26T02:10:05.466Z,0.00
2017-10-26T02:11:05.512Z,0.00
2017-10-26T02:12:05.560Z,0.00
2017-10-26T02:13:05.613Z,0.00
2017-10-26T02:14:05.724Z,0.00
2017-10-26T02:15:05.694Z,0.00
2017-10-26T02:16:05.744Z,0.00
2017-10-26T02:17:05.789Z,0.00
2017-10-26T02:18:05.837Z,0.00
2017-10-26T02:19:06.036Z,0.00
2017-10-26T02:20:05.930Z,0.00
2017-10-26T02:21:05.974Z,0.00
2017-10-26T02:22:06.021Z,0.00
2017-10-26T02:23:06.065Z,0.00
2017-10-26T02:24:06.173Z,0.00
2017-10-26T02:25:06.216Z,0.00
2017-10-26T02:26:06.205Z,0.00
2017-10-26T02:27:06.248Z,0.00
2017-10-26T02:28:08.317Z,0.00
2017-10-26T02:29:06.348Z,0.00
2017-10-26T02:30:06.448Z,0.00
2017-10-26T02:31:06.433Z,0.00
2017-10-26T02:32:06.479Z,0.00
2017-10-26T02:33:06.527Z,0.00
2017-10-26T02:34:06.571Z,0.00
2017-10-26T02:35:06.678Z,0.00
2017-10-26T02:36:06.667Z,0.00
2017-10-26T02:37:06.706Z,0.00
2017-10-26T02:38:06.757Z,0.00
2017-10-26T02:39:06.809Z,0.00
2017-10-26T02:40:06.910Z,0.00
2017-10-26T02:41:06.893Z,0.00
2017-10-26T02:42:06.941Z,0.00
2017-10-26T02:43:06.983Z,0.00
2017-10-26T02:44:07.030Z,0.00
2017-10-26T02:45:07.159Z,0.00
2017-10-26T02:46:07.136Z,0.00
2017-10-26T02:47:07.167Z,0.00
2017-10-26T02:48:07.216Z,0.00
2017-10-26T02:49:07.261Z,0.00
2017-10-26T02:50:07.383Z,0.00
2017-10-26T02:51:07.352Z,0.00
2017-10-26T02:52:07.403Z,0.00
2017-10-26T02:53:07.442Z,0.00
2017-10-26T02:54:07.486Z,0.00
2017-10-26T02:55:07.615Z,0.00
2017-10-26T02:56:07.582Z,0.00
2017-10-26T02:57:07.627Z,0.00
2017-10-26T02:58:07.673Z,0.00
2017-10-26T02:59:07.721Z,0.00
2017-10-26T03:00:07.827Z,0.00
2017-10-26T03:01:07.876Z,0.00
2017-10-26T03:02:07.858Z,0.00
2017-10-26T03:03:07.903Z,0.00
2017-10-26T03:04:07.952Z,0.00
2017-10-26T03:05:08.000Z,0.00
2017-10-26T03:06:08.101Z,0.00
2017-10-26T03:07:08.085Z,0.00
2017-10-26T03:08:08.131Z,0.00
2017-10-26T03:09:08.178Z,0.00
2017-10-26T03:10:08.223Z,0.00
2017-10-26T03:11:08.331Z,0.00
2017-10-26T03:12:08.316Z,0.00
2017-10-26T03:13:08.363Z,0.00
2017-10-26T03:14:08.407Z,0.00
2017-10-26T03:15:08.453Z,0.00
2017-10-26T03:16:08.561Z,0.00
2017-10-26T03:17:08.547Z,0.00
2017-10-26T03:18:08.605Z,0.00
2017-10-26T03:19:08.640Z,0.00
2017-10-26T03:20:08.684Z,0.00
2017-10-26T03:21:08.791Z,0.00
2017-10-26T03:22:08.774Z,0.00
2017-10-26T03:23:08.822Z,0.00
2017-10-26T03:24:08.868Z,0.00
2017-10-26T03:25:08.912Z,0.00
2017-10-26T03:26:09.030Z,0.00
2017-10-26T03:27:09.003Z,0.00
2017-10-26T03:28:09.050Z,0.00
2017-10-26T03:29:09.105Z,0.00
2017-10-26T03:30:09.143Z,0.00
2017-10-26T03:31:09.257Z,0.00
2017-10-26T03:32:09.295Z,0.00
2017-10-26T03:33:09.280Z,0.00
2017-10-26T03:34:09.329Z,0.00
2017-10-26T03:35:09.371Z,0.00
2017-10-26T03:36:09.418Z,0.00
2017-10-26T03:37:09.526Z,0.00
2017-10-26T03:38:09.511Z,0.00
2017-10-26T03:39:09.555Z,0.00
2017-10-26T03:40:09.603Z,0.00
2017-10-26T03:41:09.646Z,0.00
2017-10-26T03:42:09.756Z,0.00
2017-10-26T03:43:09.738Z,0.00
2017-10-26T03:44:09.786Z,0.00
2017-10-26T03:45:09.839Z,0.00
2017-10-26T03:46:09.877Z,0.00
2017-10-26T03:47:09.987Z,0.00
2017-10-26T03:48:09.971Z,0.00
2017-10-26T03:49:10.015Z,0.00
2017-10-26T03:50:10.058Z,0.00
2017-10-26T03:51:10.105Z,0.00
2017-10-26T03:52:10.214Z,0.00
2017-10-26T03:53:10.259Z,0.00
2017-10-26T03:54:10.243Z,0.00
2017-10-26T03:55:10.292Z,0.00
2017-10-26T03:56:10.333Z,0.00
2017-10-26T03:57:10.382Z,0.00
2017-10-26T03:58:10.488Z,0.00
2017-10-26T03:59:10.471Z,0.00
2017-10-26T04:00:10.518Z,0.00
2017-10-26T04:01:10.564Z,0.00
2017-10-26T04:02:10.608Z,0.00
2017-10-26T04:03:10.716Z,0.00
2017-10-26T04:04:10.704Z,0.00
2017-10-26T04:05:10.747Z,0.00
2017-10-26T04:06:10.793Z,0.00
2017-10-26T04:07:10.836Z,0.00
2017-10-26T04:08:10.951Z,0.00
2017-10-26T04:09:10.930Z,0.00
2017-10-26T04:10:10.979Z,0.00
2017-10-26T04:11:11.021Z,0.00
2017-10-26T04:12:11.067Z,0.00
2017-10-26T04:13:11.180Z,0.00
2017-10-26T04:14:11.161Z,0.00
2017-10-26T04:15:11.204Z,0.00
2017-10-26T04:16:11.248Z,0.00
2017-10-26T04:17:11.293Z,0.00
2017-10-26T04:18:11.402Z,0.00
2017-10-26T04:19:11.450Z,0.00
2017-10-26T04:20:11.433Z,0.00
2017-10-26T04:21:11.476Z,0.00
2017-10-26T04:22:11.523Z,0.00
2017-10-26T04:23:11.575Z,0.00
2017-10-26T04:24:11.675Z,0.00
2017-10-26T04:25:11.667Z,0.00
2017-10-26T04:26:11.707Z,0.00
2017-10-26T04:27:11.755Z,0.00
2017-10-26T04:28:11.796Z,0.00
2017-10-26T04:29:11.907Z,0.00
2017-10-26T04:30:11.891Z,0.00
2017-10-26T04:31:11.936Z,0.00
2017-10-26T04:32:11.978Z,0.00
2017-10-26T04:33:12.026Z,0.00
2017-10-26T04:34:12.131Z,0.00
2017-10-26T04:35:12.118Z,0.00
2017-10-26T04:36:12.171Z,0.00
2017-10-26T04:37:12.213Z,0.00
2017-10-26T04:38:12.254Z,0.00
2017-10-26T04:39:12.365Z,0.00
2017-10-26T04:40:12.345Z,0.00
2017-10-26T04:41:12.392Z,0.00
2017-10-26T04:42:12.437Z,0.00
2017-10-26T04:43:12.486Z,0.00
2017-10-26T04:44:12.608Z,0.00
2017-10-26T04:45:12.574Z,0.00
2017-10-26T04:46:12.621Z,0.00
2017-10-26T04:47:12.664Z,0.00
2017-10-26T04:48:12.711Z,0.00
2017-10-26T04:49:12.822Z,0.00
2017-10-26T04:50:12.802Z,0.00
2017-10-26T04:51:12.849Z,0.00
2017-10-26T04:52:12.893Z,0.00
2017-10-26T04:53:12.940Z,0.00
2017-10-26T04:54:13.070Z,0.00
2017-10-26T04:55:13.031Z,0.00
2017-10-26T04:56:13.084Z,0.00
2017-10-26T04:57:13.123Z,0.00
2017-10-26T04:58:13.170Z,0.00
2017-10-26T04:59:13.294Z,0.00
2017-10-26T05:00:13.258Z,0.00
2017-10-26T05:01:13.305Z,0.00
2017-10-26T05:02:13.349Z,0.00
2017-10-26T05:03:13.395Z,0.00
2017-10-26T05:04:13.523Z,0.00
2017-10-26T05:05:13.486Z,0.00
2017-10-26T05:06:13.534Z,0.00
2017-10-26T05:07:13.580Z,0.00
2017-10-26T05:08:13.624Z,0.00
2017-10-26T05:09:13.732Z,0.00
2017-10-26T05:10:13.775Z,0.00
2017-10-26T05:11:13.759Z,0.00
2017-10-26T05:12:13.806Z,0.00
2017-10-26T05:13:13.852Z,0.00
2017-10-26T05:14:13.895Z,0.00
2017-10-26T05:15:14.006Z,0.00
2017-10-26T05:16:13.992Z,0.00
2017-10-26T05:17:14.033Z,0.00
2017-10-26T05:18:14.074Z,0.00
2017-10-26T05:19:14.124Z,0.00
2017-10-26T05:20:14.243Z,0.00
2017-10-26T05:21:14.217Z,0.00
2017-10-26T05:22:14.259Z,0.00
2017-10-26T05:23:14.309Z,0.00
2017-10-26T05:24:14.357Z,0.00
2017-10-26T05:25:14.479Z,4.00
2017-10-26T05:26:14.443Z,4.00
2017-10-26T05:27:14.489Z,0.00
2017-10-26T05:28:14.534Z,4.00
2017-10-26T05:29:14.580Z,4.00
2017-10-26T05:30:14.685Z,4.00
2017-10-26T05:31:14.733Z,4.00
2017-10-26T05:32:14.720Z,4.00
2017-10-26T05:33:14.762Z,8.00
2017-10-26T05:34:14.811Z,12.00
2017-10-26T05:35:14.853Z,12.00
2017-10-26T05:36:14.962Z,12.00
2017-10-26T05:37:14.949Z,16.00
2017-10-26T05:38:14.988Z,20.00
2017-10-26T05:39:15.034Z,24.00
2017-10-26T05:40:15.086Z,32.00
2017-10-26T05:41:15.186Z,40.00
2017-10-26T05:42:15.169Z,48.00
2017-10-26T05:43:15.216Z,56.00
2017-10-26T05:44:15.256Z,72.00
2017-10-26T05:45:15.306Z,92.00
2017-10-26T05:46:15.413Z,112.00
2017-10-26T05:47:15.397Z,124.00
2017-10-26T05:48:15.444Z,136.00
2017-10-26T05:49:15.487Z,148.00
2017-10-26T05:50:15.532Z,160.00
2017-10-26T05:51:15.644Z,172.00
2017-10-26T05:52:15.631Z,188.00
2017-10-26T05:53:15.669Z,208.00
2017-10-26T05:54:15.713Z,228.00
2017-10-26T05:55:15.761Z,252.00
2017-10-26T05:56:15.868Z,276.00
2017-10-26T05:57:15.851Z,304.00
2017-10-26T05:58:15.894Z,340.00
2017-10-26T05:59:15.949Z,376.00
2017-10-26T06:00:15.989Z,412.00
2017-10-26T06:01:16.097Z,448.00
2017-10-26T06:02:16.077Z,484.00
2017-10-26T06:03:16.126Z,524.00
2017-10-26T06:04:16.170Z,576.00
2017-10-26T06:05:16.214Z,640.00
2017-10-26T06:06:16.318Z,712.00
2017-10-26T06:07:16.304Z,792.00
2017-10-26T06:08:16.351Z,884.00
2017-10-26T06:09:16.395Z,984.00
2017-10-26T06:10:16.467Z,1084.00
2017-10-26T06:11:16.563Z,1184.00
2017-10-26T06:12:16.529Z,1280.00
2017-10-26T06:13:16.580Z,1376.00
2017-10-26T06:14:16.621Z,1460.00
2017-10-26T06:15:16.670Z,1556.00
2017-10-26T06:16:16.782Z,1660.00
2017-10-26T06:17:16.822Z,1772.00
2017-10-26T06:18:16.806Z,1876.00
2017-10-26T06:19:16.849Z,1936.00
2017-10-26T06:20:16.898Z,1980.00
2017-10-26T06:21:16.946Z,2028.00
2017-10-26T06:22:17.060Z,2080.00
2017-10-26T06:23:17.036Z,2132.00
2017-10-26T06:24:17.074Z,2196.00
2017-10-26T06:25:17.121Z,2280.00
2017-10-26T06:26:17.167Z,2360.00
2017-10-26T06:27:17.291Z,2428.00
2017-10-26T06:28:17.256Z,2488.00
2017-10-26T06:29:17.302Z,2560.00
2017-10-26T06:30:17.346Z,2640.00
2017-10-26T06:31:17.407Z,2784.00
2017-10-26T06:32:17.514Z,2892.00
2017-10-26T06:33:17.484Z,2996.00
2017-10-26T06:34:17.532Z,3096.00
2017-10-26T06:35:17.575Z,3168.00
2017-10-26T06:36:17.622Z,3252.00
2017-10-26T06:37:17.747Z,3368.00
2017-10-26T06:38:17.712Z,3460.00
2017-10-26T06:39:17.756Z,3476.00
2017-10-26T06:40:17.803Z,3580.00
2017-10-26T06:41:17.850Z,3776.00
2017-10-26T06:42:17.979Z,3888.00
2017-10-26T06:43:17.940Z,3936.00
2017-10-26T06:44:17.985Z,3944.00
2017-10-26T06:45:18.030Z,3988.00
2017-10-26T06:46:18.078Z,4108.00
2017-10-26T06:47:18.191Z,4276.00
2017-10-26T06:48:18.169Z,4472.00
2017-10-26T06:49:18.213Z,4544.00
2017-10-26T06:50:18.259Z,4600.00
2017-10-26T06:51:18.306Z,4948.00
2017-10-26T06:52:18.413Z,5056.00
2017-10-26T06:53:18.397Z,4864.00
2017-10-26T06:54:18.443Z,4700.00
2017-10-26T06:55:18.512Z,4656.00
2017-10-26T06:56:18.536Z,4704.00
2017-10-26T06:57:18.649Z,4752.00
2017-10-26T06:58:18.625Z,4792.00
2017-10-26T06:59:18.673Z,4872.00
2017-10-26T07:00:18.718Z,4968.00
2017-10-26T07:01:18.765Z,5084.00
2017-10-26T07:02:18.873Z,5156.00
2017-10-26T07:03:18.919Z,5220.00
2017-10-26T07:04:18.902Z,5300.00
2017-10-26T07:05:18.952Z,5360.00
2017-10-26T07:06:18.998Z,5436.00
2017-10-26T07:07:19.042Z,5532.00
2017-10-26T07:08:19.158Z,5704.00
2017-10-26T07:09:19.141Z,6120.00
2017-10-26T07:10:19.179Z,6536.00
2017-10-26T07:11:19.226Z,6676.00
2017-10-26T07:12:19.278Z,6908.00
2017-10-26T07:13:19.389Z,7220.00
2017-10-26T07:14:19.364Z,7536.00
2017-10-26T07:15:19.411Z,8160.00
2017-10-26T07:16:19.458Z,8412.00
2017-10-26T07:17:19.501Z,8244.00
2017-10-26T07:18:19.611Z,7776.00
2017-10-26T07:19:19.600Z,7388.00
2017-10-26T07:20:19.644Z,7212.00
2017-10-26T07:21:19.691Z,7636.00
2017-10-26T07:22:19.737Z,8132.00
2017-10-26T07:23:19.866Z,8096.00
2017-10-26T07:24:19.831Z,8052.00
2017-10-26T07:25:19.880Z,8308.00
2017-10-26T07:26:19.924Z,8516.00
2017-10-26T07:27:19.976Z,9312.00
2017-10-26T07:28:20.080Z,10524.00
2017-10-26T07:29:20.067Z,11588.00
2017-10-26T07:30:20.121Z,11552.00
2017-10-26T07:31:20.160Z,10956.00
2017-10-26T07:32:20.210Z,10816.00
2017-10-26T07:33:20.335Z,11012.00
2017-10-26T07:34:20.306Z,10984.00
2017-10-26T07:35:20.351Z,11472.00
2017-10-26T07:36:20.405Z,11324.00
2017-10-26T07:37:20.446Z,11316.00
2017-10-26T07:38:20.567Z,10924.00
2017-10-26T07:39:20.539Z,12184.00
2017-10-26T07:40:20.589Z,12452.00
2017-10-26T07:41:20.635Z,13152.00
2017-10-26T07:42:20.684Z,13648.00
2017-10-26T07:43:20.813Z,13692.00
2017-10-26T07:44:20.780Z,13808.00
2017-10-26T07:45:20.832Z,13668.00
2017-10-26T07:46:20.876Z,13220.00
2017-10-26T07:47:20.921Z,14080.00
2017-10-26T07:48:21.032Z,13580.00
2017-10-26T07:49:21.080Z,13936.00
2017-10-26T07:50:21.063Z,14736.00
2017-10-26T07:51:21.109Z,15444.00
2017-10-26T07:52:21.159Z,15600.00
2017-10-26T07:53:21.208Z,16064.00
2017-10-26T07:54:21.313Z,15328.00
2017-10-26T07:55:21.302Z,15996.00
2017-10-26T07:56:21.352Z,14672.00
2017-10-26T07:57:21.398Z,13288.00
2017-10-26T07:58:21.447Z,12896.00
2017-10-26T07:59:21.561Z,13952.00
2017-10-26T08:00:21.543Z,14756.00
2017-10-26T08:01:21.593Z,14660.00
2017-10-26T08:02:21.637Z,14824.00
2017-10-26T08:03:21.690Z,13772.00
2017-10-26T08:04:21.804Z,14480.00
2017-10-26T08:05:21.785Z,16160.00
2017-10-26T08:06:21.831Z,16260.00
2017-10-26T08:07:21.881Z,15548.00
2017-10-26T08:08:21.936Z,14280.00
2017-10-26T08:09:22.043Z,14992.00
2017-10-26T08:10:22.026Z,16832.00
2017-10-26T08:11:22.075Z,19488.00
2017-10-26T08:12:22.125Z,17472.00
2017-10-26T08:13:22.169Z,17696.00
2017-10-26T08:14:22.285Z,17344.00
2017-10-26T08:15:22.268Z,20064.00
2017-10-26T08:16:22.316Z,22944.00
2017-10-26T08:17:22.366Z,19296.00
2017-10-26T08:18:22.420Z,20064.00
2017-10-26T08:19:22.543Z,24320.00
2017-10-26T08:20:22.512Z,27008.00
2017-10-26T08:21:22.561Z,25824.00
2017-10-26T08:22:22.607Z,24640.00
2017-10-26T08:23:22.662Z,24544.00
2017-10-26T08:24:22.770Z,26496.00
2017-10-26T08:25:22.819Z,27328.00
2017-10-26T08:26:22.806Z,25184.00
2017-10-26T08:27:22.854Z,32000.00
2017-10-26T08:28:22.906Z,28928.00
2017-10-26T08:29:22.953Z,30304.00
2017-10-26T08:30:23.064Z,32832.00
2017-10-26T08:31:23.054Z,31040.00
2017-10-26T08:32:23.103Z,32320.00
2017-10-26T08:33:23.170Z,28608.00
2017-10-26T08:34:23.205Z,28544.00
2017-10-26T08:35:23.315Z,37728.00
2017-10-26T08:36:23.303Z,32128.00
2017-10-26T08:37:23.361Z,30112.00
2017-10-26T08:38:23.405Z,29152.00
2017-10-26T08:39:23.451Z,33056.00
2017-10-26T08:40:23.570Z,29824.00
2017-10-26T08:41:23.554Z,29312.00
2017-10-26T08:42:23.609Z,33504.00
2017-10-26T08:43:23.654Z,31872.00
2017-10-26T08:44:23.709Z,27584.00
2017-10-26T08:45:23.828Z,24384.00
2017-10-26T08:46:23.808Z,21632.00
2017-10-26T08:47:23.859Z,21024.00
2017-10-26T08:48:23.908Z,22048.00
2017-10-26T08:49:23.964Z,23296.00
2017-10-26T08:50:24.079Z,25760.00
2017-10-26T08:51:24.062Z,29888.00
2017-10-26T08:52:24.117Z,35040.00
2017-10-26T08:53:24.167Z,31616.00
2017-10-26T08:54:24.215Z,25632.00
2017-10-26T08:55:24.329Z,23936.00
2017-10-26T08:56:24.317Z,24384.00
2017-10-26T08:57:24.369Z,24608.00
2017-10-26T08:58:24.419Z,25152.00
2017-10-26T08:59:24.475Z,28704.00
2017-10-26T09:00:24.599Z,35456.00
2017-10-26T09:01:24.572Z,38688.00
2017-10-26T09:02:24.624Z,37728.00
2017-10-26T09:03:24.676Z,26720.00
2017-10-26T09:04:24.725Z,29312.00
2017-10-26T09:05:24.847Z,37888.00
2017-10-26T09:06:24.820Z,36992.00
2017-10-26T09:07:24.878Z,41536.00
2017-10-26T09:08:24.920Z,47616.00
2017-10-26T09:09:24.971Z,54144.00
2017-10-26T09:10:25.082Z,38464.00
2017-10-26T09:11:25.137Z,42496.00
2017-10-26T09:12:25.122Z,33088.00
2017-10-26T09:13:25.171Z,36384.00
2017-10-26T09:14:25.223Z,39552.00
2017-10-26T09:15:25.273Z,32032.00
2017-10-26T09:16:25.391Z,28768.00
2017-10-26T09:17:25.369Z,41792.00
2017-10-26T09:18:25.418Z,36960.00
2017-10-26T09:19:25.470Z,42560.00
2017-10-26T09:20:25.517Z,55968.00
2017-10-26T09:21:25.630Z,39584.00
2017-10-26T09:22:25.638Z,61024.00
2017-10-26T09:23:25.666Z,66624.00
2017-10-26T09:24:25.716Z,66080.00
2017-10-26T09:25:25.765Z,48672.00
2017-10-26T09:26:25.876Z,61760.00
2017-10-26T09:27:25.864Z,60928.00
2017-10-26T09:28:25.913Z,57760.00
2017-10-26T09:29:25.968Z,51552.00
2017-10-26T09:30:26.013Z,64704.00
2017-10-26T09:31:26.124Z,58880.00
2017-10-26T09:32:26.111Z,72960.00
2017-10-26T09:33:26.164Z,84576.00
2017-10-26T09:34:26.219Z,88480.00
2017-10-26T09:35:26.265Z,91712.00
2017-10-26T09:36:26.373Z,76960.00
2017-10-26T09:37:26.372Z,44512.00
2017-10-26T09:38:26.413Z,72256.00
2017-10-26T09:39:26.462Z,62784.00
2017-10-26T09:40:26.515Z,57184.00
2017-10-26T09:41:26.625Z,49760.00
2017-10-26T09:42:26.613Z,49920.00
2017-10-26T09:43:26.665Z,35456.00
2017-10-26T09:44:26.715Z,75424.00
2017-10-26T09:45:26.773Z,39904.00
2017-10-26T09:46:26.877Z,54784.00
2017-10-26T09:47:26.865Z,65440.00
2017-10-26T09:48:26.917Z,51264.00
2017-10-26T09:49:26.966Z,33888.00
2017-10-26T09:50:27.016Z,28352.00
2017-10-26T09:51:27.129Z,21888.00
2017-10-26T09:52:27.117Z,23040.00
2017-10-26T09:53:27.167Z,25920.00
2017-10-26T09:54:27.219Z,33440.00
2017-10-26T09:55:27.269Z,21664.00
2017-10-26T09:56:27.384Z,20800.00
2017-10-26T09:57:27.367Z,22816.00
2017-10-26T09:58:27.415Z,28384.00
2017-10-26T09:59:27.466Z,29312.00
2017-10-26T10:00:27.515Z,28672.00
2017-10-26T10:01:27.626Z,23456.00
2017-10-26T10:02:27.615Z,29472.00
2017-10-26T10:03:27.663Z,28864.00
2017-10-26T10:04:27.710Z,22528.00
2017-10-26T10:05:27.761Z,22464.00
2017-10-26T10:06:27.872Z,33120.00
2017-10-26T10:07:27.860Z,42240.00
2017-10-26T10:08:27.907Z,33504.00
2017-10-26T10:09:27.957Z,35840.00
2017-10-26T10:10:28.006Z,44224.00
2017-10-26T10:11:28.134Z,40992.00
2017-10-26T10:12:28.104Z,28320.00
2017-10-26T10:13:28.154Z,25280.00
2017-10-26T10:14:28.200Z,27360.00
2017-10-26T10:15:28.255Z,30816.00
2017-10-26T10:16:28.378Z,36768.00
2017-10-26T10:17:28.356Z,51232.00
2017-10-26T10:18:28.400Z,45280.00
2017-10-26T10:19:28.449Z,46080.00
2017-10-26T10:20:28.498Z,34624.00
2017-10-26T10:21:28.628Z,28768.00
2017-10-26T10:22:28.592Z,30944.00
2017-10-26T10:23:28.641Z,43008.00
2017-10-26T10:24:28.691Z,44672.00
2017-10-26T10:25:28.741Z,44800.00
2017-10-26T10:26:28.850Z,34720.00
2017-10-26T10:27:28.900Z,51808.00
2017-10-26T10:28:28.888Z,59808.00
2017-10-26T10:29:28.935Z,81088.00
2017-10-26T10:30:28.987Z,67424.00
2017-10-26T10:31:29.036Z,39392.00
2017-10-26T10:32:29.157Z,52608.00
2017-10-26T10:33:29.145Z,58880.00
2017-10-26T10:34:29.184Z,49792.00
2017-10-26T10:35:29.236Z,62656.00
2017-10-26T10:36:29.286Z,68800.00
2017-10-26T10:37:29.396Z,75456.00
2017-10-26T10:38:29.387Z,90240.00
2017-10-26T10:39:29.433Z,90816.00
2017-10-26T10:40:29.486Z,76480.00
2017-10-26T10:41:29.535Z,66848.00
2017-10-26T10:42:29.650Z,61344.00
2017-10-26T10:43:29.636Z,70752.00
2017-10-26T10:44:29.688Z,77888.00
2017-10-26T10:45:29.738Z,86496.00
2017-10-26T10:46:29.805Z,92832.00
2017-10-26T10:47:29.914Z,97696.00
2017-10-26T10:48:29.891Z,77856.00
2017-10-26T10:49:29.943Z,67168.00
2017-10-26T10:50:29.997Z,55808.00
2017-10-26T10:51:30.049Z,57248.00
2017-10-26T10:52:30.180Z,62368.00
2017-10-26T10:53:30.154Z,60512.00
2017-10-26T10:54:30.209Z,63136.00
2017-10-26T10:55:30.260Z,66816.00
2017-10-26T10:56:30.306Z,78272.00
2017-10-26T10:57:30.424Z,69728.00
2017-10-26T10:58:30.477Z,69984.00
2017-10-26T10:59:30.465Z,70080.00
2017-10-26T11:00:30.520Z,64928.00
2017-10-26T11:01:30.569Z,56416.00
2017-10-26T11:02:30.625Z,67616.00
2017-10-26T11:03:30.806Z,70976.00
2017-10-26T11:04:30.728Z,69056.00
2017-10-26T11:05:30.780Z,70848.00
2017-10-26T11:06:30.835Z,76480.00
2017-10-26T11:07:30.883Z,83296.00
2017-10-26T11:08:31.002Z,85056.00
2017-10-26T11:09:30.987Z,78048.00
2017-10-26T11:10:31.042Z,82560.00
2017-10-26T11:11:31.094Z,84768.00
2017-10-26T11:12:31.147Z,83200.00
2017-10-26T11:13:31.294Z,80096.00
2017-10-26T11:14:31.250Z,75872.00
2017-10-26T11:15:31.307Z,76384.00
2017-10-26T11:16:31.357Z,76672.00
2017-10-26T11:17:31.409Z,79936.00
2017-10-26T11:18:31.524Z,89440.00
2017-10-26T11:19:31.513Z,93920.00
2017-10-26T11:20:31.571Z,97280.00
2017-10-26T11:21:31.619Z,77600.00
2017-10-26T11:22:31.669Z,78240.00
2017-10-26T11:23:31.790Z,81888.00
2017-10-26T11:24:31.778Z,90592.00
2017-10-26T11:25:31.832Z,91552.00
2017-10-26T11:26:31.882Z,87840.00
2017-10-26T11:27:31.936Z,82240.00
2017-10-26T11:28:32.053Z,79040.00
2017-10-26T11:29:32.043Z,80736.00
2017-10-26T11:30:32.095Z,84736.00
2017-10-26T11:31:32.147Z,87296.00
2017-10-26T11:32:32.205Z,82752.00
2017-10-26T11:33:32.334Z,74592.00
2017-10-26T11:34:32.306Z,68576.00
2017-10-26T11:35:32.360Z,65376.00
2017-10-26T11:36:32.415Z,68096.00
2017-10-26T11:37:32.470Z,71264.00
2017-10-26T11:38:32.589Z,76192.00
2017-10-26T11:39:32.577Z,80672.00
2017-10-26T11:40:32.626Z,82656.00
2017-10-26T11:41:32.681Z,78688.00
2017-10-26T11:42:32.733Z,78976.00
2017-10-26T11:43:32.877Z,81216.00
2017-10-26T11:44:32.845Z,86016.00
2017-10-26T11:45:32.894Z,89728.00
2017-10-26T11:46:32.946Z,84320.00
2017-10-26T11:47:33.000Z,75872.00
2017-10-26T11:48:33.138Z,68160.00
2017-10-26T11:49:33.110Z,63072.00
2017-10-26T11:50:33.165Z,64640.00
2017-10-26T11:51:33.216Z,66688.00
2017-10-26T11:52:33.268Z,68256.00
2017-10-26T11:53:33.390Z,68384.00
2017-10-26T11:54:33.436Z,66720.00
2017-10-26T11:55:33.432Z,65856.00
2017-10-26T11:56:33.485Z,67072.00
2017-10-26T11:57:33.535Z,74432.00
2017-10-26T11:58:33.589Z,79008.00
2017-10-26T11:59:33.709Z,81344.00
2017-10-26T12:00:33.698Z,78496.00
2017-10-26T12:01:33.750Z,70304.00
2017-10-26T12:02:33.804Z,64352.00
2017-10-26T12:03:33.859Z,63264.00
2017-10-26T12:04:33.974Z,63488.00
2017-10-26T12:05:33.966Z,70432.00
2017-10-26T12:06:34.020Z,74432.00
2017-10-26T12:07:34.072Z,73984.00
2017-10-26T12:08:34.127Z,74784.00
2017-10-26T12:09:34.252Z,76864.00
2017-10-26T12:10:34.234Z,80256.00
2017-10-26T12:11:34.288Z,80640.00
2017-10-26T12:12:34.342Z,76032.00
2017-10-26T12:13:34.397Z,64160.00
2017-10-26T12:14:34.532Z,55328.00
2017-10-26T12:15:34.507Z,50272.00
2017-10-26T12:16:34.559Z,48800.00
2017-10-26T12:17:34.614Z,42496.00
2017-10-26T12:18:34.669Z,34528.00
2017-10-26T12:19:34.805Z,29920.00
2017-10-26T12:20:34.775Z,24960.00
2017-10-26T12:21:34.830Z,17908.00
2017-10-26T12:22:34.884Z,8332.00
2017-10-26T12:23:34.934Z,7064.00
2017-10-26T12:24:35.051Z,6720.00
2017-10-26T12:25:35.103Z,6388.00
2017-10-26T12:26:35.095Z,6164.00
2017-10-26T12:27:35.146Z,6024.00
2017-10-26T12:28:35.201Z,5980.00
2017-10-26T12:29:35.256Z,5948.00